Time;durP1;ratioP1;P1;durP2;ratioP2;P2;SDS_P1;SDS_P2;PMS_P1;PMS_P2;Temp;Humidity;BMP_temperature;BMP_pressure;BME280_temperature;BME280_humidity;BME280_pressure;Samples;Min_cycle;Max_cycle;Signal;HPM_P1;HPM_P2
2022/05/07 00:00:16;;;;;;;13.97;7.33;;;13.00;99.90;;;;;;4209266;28;20036;-55
2022/05/07 00:02:18;;;;;;;8.33;6.60;;;13.00;99.90;;;;;;4218114;28;20027;-62
2022/05/07 00:04:20;;;;;;;9.77;6.10;;;12.90;99.90;;;;;;4225210;28;20076;-68
2022/05/07 00:06:21;;;;;;;8.57;5.97;;;12.90;99.90;;;;;;4223855;28;20040;-56
2022/05/07 00:08:22;;;;;;;10.37;6.70;;;12.90;99.90;;;;;;4208136;28;20036;-64
2022/05/07 00:10:23;;;;;;;7.67;5.30;;;12.80;99.90;;;;;;4218527;28;20035;-60
2022/05/07 00:12:24;;;;;;;11.00;6.00;;;12.80;99.90;;;;;;4223749;28;20445;-58
2022/05/07 00:14:26;;;;;;;7.77;5.20;;;12.90;99.90;;;;;;4225220;28;20036;-57
2022/05/07 00:18:47;;;;;;;7.38;4.88;;;12.80;99.90;;;;;;4226315;28;20537;-66
2022/05/07 00:20:49;;;;;;;9.30;5.50;;;12.80;99.90;;;;;;4224753;28;20074;-63
2022/05/07 00:22:50;;;;;;;6.33;5.03;;;12.80;99.90;;;;;;4225341;28;20487;-58
2022/05/07 00:24:51;;;;;;;13.17;5.97;;;12.80;99.90;;;;;;4224366;28;20100;-53
2022/05/07 00:26:52;;;;;;;8.97;5.27;;;12.80;99.90;;;;;;4225918;28;20093;-64
2022/05/07 00:28:54;;;;;;;9.10;5.53;;;12.80;99.90;;;;;;4222909;28;20044;-61
2022/05/07 00:30:55;;;;;;;9.10;5.13;;;12.80;99.90;;;;;;4224412;28;20057;-59
2022/05/07 00:32:56;;;;;;;6.07;4.20;;;12.80;99.90;;;;;;4217810;28;20557;-64
2022/05/07 00:34:58;;;;;;;7.20;4.80;;;12.70;99.90;;;;;;4207678;28;20036;-57
2022/05/07 00:36:59;;;;;;;6.40;4.27;;;12.70;99.90;;;;;;4208217;28;20044;-67
2022/05/07 00:39:00;;;;;;;8.23;4.47;;;12.70;99.90;;;;;;4208029;28;20819;-60
2022/05/07 00:41:02;;;;;;;7.97;4.50;;;12.70;99.90;;;;;;4208319;28;20044;-58
2022/05/07 00:43:04;;;;;;;4.90;4.20;;;12.70;99.90;;;;;;4207426;28;20911;-58
2022/05/07 00:45:06;;;;;;;6.00;4.40;;;12.70;99.90;;;;;;4217394;28;20040;-55
2022/05/07 00:47:29;;;;;;;8.33;4.60;;;12.70;99.90;;;;;;4219732;28;20073;-61
2022/05/07 00:49:30;;;;;;;8.10;4.03;;;12.70;99.90;;;;;;4225228;28;20051;-59
2022/05/07 00:51:35;;;;;;;5.90;4.53;;;12.60;99.90;;;;;;4223497;28;20043;-59
2022/05/07 00:53:38;;;;;;;6.63;4.57;;;12.60;99.90;;;;;;4225062;28;20793;-64
2022/05/07 00:55:41;;;;;;;6.93;4.17;;;12.60;99.90;;;;;;4217194;28;20043;-60
2022/05/07 00:57:42;;;;;;;9.33;4.47;;;12.60;99.90;;;;;;4225274;28;20043;-63
2022/05/07 00:59:45;;;;;;;5.40;4.27;;;12.60;99.90;;;;;;4223664;28;20031;-63
2022/05/07 01:01:47;;;;;;;8.57;4.67;;;12.60;99.90;;;;;;4223039;28;20023;-63
2022/05/07 01:03:49;;;;;;;8.77;5.33;;;12.70;99.90;;;;;;4223780;28;20032;-61
2022/05/07 01:05:50;;;;;;;12.83;6.27;;;12.70;99.90;;;;;;4224407;28;20040;-59
2022/05/07 01:07:52;;;;;;;10.00;7.27;;;12.60;99.90;;;;;;4224301;28;20028;-63
2022/05/07 01:09:54;;;;;;;11.67;7.50;;;12.40;99.90;;;;;;4224586;28;20047;-57
2022/05/07 01:11:56;;;;;;;12.43;6.63;;;12.30;99.90;;;;;;4224388;28;20091;-69
2022/05/07 01:13:57;;;;;;;11.97;6.97;;;12.20;99.90;;;;;;4223046;28;20020;-65
2022/05/07 01:15:58;;;;;;;12.13;7.63;;;12.20;99.90;;;;;;4223716;28;20456;-55
2022/05/07 01:17:59;;;;;;;14.93;7.33;;;12.20;99.90;;;;;;4222025;28;20089;-67
2022/05/07 01:20:01;;;;;;;11.80;7.80;;;12.20;99.90;;;;;;4224957;28;20072;-63
2022/05/07 01:22:03;;;;;;;13.00;7.50;;;12.20;99.90;;;;;;4223841;28;20040;-62
2022/05/07 01:24:04;;;;;;;14.00;8.30;;;12.20;99.90;;;;;;4224295;28;20047;-69
2022/05/07 01:26:05;;;;;;;15.47;9.40;;;12.20;99.90;;;;;;4223699;28;20076;-69
2022/05/07 01:28:07;;;;;;;14.07;8.57;;;12.10;99.90;;;;;;4224920;28;20023;-65
2022/05/07 01:30:08;;;;;;;17.37;9.10;;;12.10;99.90;;;;;;4220411;28;20051;-57
2022/05/07 01:32:09;;;;;;;11.57;8.17;;;12.10;99.90;;;;;;4224725;28;20032;-69
2022/05/07 01:34:11;;;;;;;12.83;8.17;;;12.10;99.90;;;;;;4221099;28;20089;-67
2022/05/07 01:36:16;;;;;;;11.03;7.03;;;12.00;99.90;;;;;;4207328;28;20117;-56
2022/05/07 01:38:17;;;;;;;13.33;8.43;;;12.00;99.90;;;;;;4206947;28;20040;-67
2022/05/07 01:40:20;;;;;;;13.30;8.13;;;12.00;99.90;;;;;;4207755;28;20093;-68
2022/05/07 01:42:21;;;;;;;12.77;8.27;;;11.90;99.90;;;;;;4207286;28;20054;-64
2022/05/07 01:44:22;;;;;;;24.53;7.80;;;11.80;99.90;;;;;;4207471;28;20028;-65
2022/05/07 01:48:43;;;;;;;11.57;7.27;;;11.80;99.90;;;;;;4223192;28;20089;-59
2022/05/07 01:50:45;;;;;;;9.83;7.07;;;11.70;99.90;;;;;;4224088;28;20036;-67
2022/05/07 01:52:46;;;;;;;11.77;6.93;;;11.70;99.90;;;;;;4222833;28;20039;-68
2022/05/07 01:54:47;;;;;;;9.10;6.50;;;11.60;99.90;;;;;;4224655;28;20027;-64
2022/05/07 01:56:48;;;;;;;8.13;6.13;;;11.60;99.90;;;;;;4223321;28;20080;-68
2022/05/07 01:58:49;;;;;;;10.67;6.90;;;11.50;99.90;;;;;;4224503;28;20485;-67
2022/05/07 02:00:51;;;;;;;13.77;6.80;;;11.40;99.90;;;;;;4223013;28;20182;-65
2022/05/07 02:02:52;;;;;;;12.63;6.47;;;11.40;99.90;;;;;;4222860;28;20039;-67
2022/05/07 02:04:53;;;;;;;12.47;6.57;;;11.20;99.90;;;;;;4222952;28;20537;-69
2022/05/07 02:06:55;;;;;;;11.57;6.87;;;11.20;99.90;;;;;;4223280;28;20552;-65
2022/05/07 02:08:56;;;;;;;10.33;6.67;;;11.10;99.90;;;;;;4221404;28;20797;-62
2022/05/07 02:11:00;;;;;;;14.67;7.47;;;11.10;99.90;;;;;;4224240;28;20040;-59
2022/05/07 02:13:02;;;;;;;10.03;6.70;;;11.10;99.90;;;;;;4222818;28;20550;-57
2022/05/07 02:15:03;;;;;;;9.07;6.50;;;11.10;99.90;;;;;;4223552;28;20821;-68
2022/05/07 02:17:04;;;;;;;11.33;7.70;;;11.20;99.90;;;;;;4220812;28;20043;-54
2022/05/07 02:19:05;;;;;;;10.17;7.47;;;11.20;99.90;;;;;;4220201;28;20028;-56
2022/05/07 02:21:07;;;;;;;14.60;7.40;;;11.20;99.90;;;;;;4206210;28;20040;-61
2022/05/07 02:23:08;;;;;;;11.73;7.60;;;11.20;99.90;;;;;;4206670;28;20086;-68
2022/05/07 02:25:10;;;;;;;11.20;8.10;;;11.10;99.90;;;;;;4217374;28;20040;-58
2022/05/07 02:27:11;;;;;;;15.57;7.70;;;11.10;99.90;;;;;;4222995;28;20089;-59
2022/05/07 02:29:14;;;;;;;16.13;7.47;;;11.00;99.90;;;;;;4207598;28;20409;-57
2022/05/07 02:31:15;;;;;;;15.20;9.00;;;11.00;99.90;;;;;;4205729;28;20048;-57
2022/05/07 02:33:18;;;;;;;13.87;7.17;;;10.90;99.90;;;;;;4207760;28;20032;-56
2022/05/07 02:35:21;;;;;;;13.23;7.77;;;10.80;99.90;;;;;;4205384;28;20032;-54
2022/05/07 02:37:22;;;;;;;8.33;7.20;;;10.70;99.90;;;;;;4207142;28;20096;-55
2022/05/07 02:39:23;;;;;;;11.77;6.90;;;10.70;99.90;;;;;;4206002;28;20052;-53
2022/05/07 02:43:44;;;;;;;20.55;8.77;;;10.60;99.90;;;;;;4213119;28;20093;-58
2022/05/07 02:45:45;;;;;;;16.53;8.80;;;10.50;99.90;;;;;;4223342;28;20556;-63
2022/05/07 02:47:46;;;;;;;19.63;9.90;;;10.50;99.90;;;;;;4222844;28;20031;-56
2022/05/07 02:49:48;;;;;;;23.27;9.57;;;10.50;99.90;;;;;;4222791;28;20607;-56
2022/05/07 02:51:49;;;;;;;16.60;9.70;;;10.50;99.90;;;;;;4222635;28;20073;-59
2022/05/07 02:53:50;;;;;;;18.63;10.23;;;10.50;99.90;;;;;;4223207;28;20088;-61
2022/05/07 02:55:51;;;;;;;11.50;7.53;;;10.60;99.90;;;;;;4223021;28;20036;-68
2022/05/07 02:57:52;;;;;;;13.57;7.13;;;10.60;99.90;;;;;;4219707;28;20035;-62
2022/05/07 02:59:54;;;;;;;10.47;7.60;;;10.60;99.90;;;;;;4204684;28;20044;-68
2022/05/07 03:01:55;;;;;;;15.23;8.93;;;10.60;99.90;;;;;;4205726;28;20036;-59
2022/05/07 03:03:56;;;;;;;12.30;8.33;;;10.60;99.90;;;;;;4207465;28;20077;-61
2022/05/07 03:05:59;;;;;;;13.47;8.50;;;10.60;99.90;;;;;;4205575;28;20035;-59
2022/05/07 03:08:00;;;;;;;12.90;8.50;;;10.70;99.90;;;;;;4206452;28;20040;-58
2022/05/07 03:10:02;;;;;;;16.43;8.60;;;10.70;99.90;;;;;;4204929;28;20036;-66
2022/05/07 03:12:03;;;;;;;11.97;7.43;;;10.70;99.90;;;;;;4206647;28;20720;-60
2022/05/07 03:14:06;;;;;;;13.97;8.70;;;10.70;99.90;;;;;;4206229;28;21381;-63
2022/05/07 03:16:07;;;;;;;14.97;9.93;;;10.60;99.90;;;;;;4206440;28;20070;-59
2022/05/07 03:18:08;;;;;;;17.27;9.27;;;10.50;99.90;;;;;;4204265;28;20032;-63
2022/05/07 03:20:13;;;;;;;20.90;10.93;;;10.50;99.90;;;;;;4206673;28;20947;-65
2022/05/07 03:22:14;;;;;;;17.33;10.17;;;10.50;99.90;;;;;;4205071;28;20557;-58
2022/05/07 03:24:15;;;;;;;13.80;10.27;;;10.40;99.90;;;;;;4222235;28;20024;-59
2022/05/07 03:26:17;;;;;;;19.17;10.23;;;10.40;99.90;;;;;;4222254;28;20077;-55
2022/05/07 03:28:18;;;;;;;19.50;11.40;;;10.40;99.90;;;;;;4222033;28;20039;-60
2022/05/07 03:30:20;;;;;;;31.87;20.20;;;10.40;99.90;;;;;;4219764;28;20039;-62
2022/05/07 03:32:23;;;;;;;27.00;16.47;;;10.30;99.90;;;;;;4221439;28;20442;-60
2022/05/07 03:34:24;;;;;;;27.03;12.87;;;10.30;99.90;;;;;;4222937;28;20069;-63
2022/05/07 03:36:25;;;;;;;18.00;12.83;;;10.40;99.90;;;;;;4222053;28;20092;-58
2022/05/07 03:38:26;;;;;;;23.80;14.00;;;10.40;99.90;;;;;;4222558;28;20036;-69
2022/05/07 03:40:28;;;;;;;35.83;22.27;;;10.40;99.90;;;;;;4221490;28;20425;-58
2022/05/07 03:42:33;;;;;;;46.77;31.57;;;10.40;99.90;;;;;;4218696;28;20024;-65
2022/05/07 03:44:34;;;;;;;47.17;28.57;;;10.40;99.90;;;;;;4204766;28;20085;-59
2022/05/07 03:46:36;;;;;;;44.47;28.30;;;10.30;99.90;;;;;;4206644;28;20051;-67
2022/05/07 03:48:37;;;;;;;53.53;33.73;;;10.30;99.90;;;;;;4204934;28;20113;-60
2022/05/07 03:50:38;;;;;;;37.80;23.03;;;10.40;99.90;;;;;;4205849;28;20044;-68
2022/05/07 03:54:59;;;;;;;27.02;17.70;;;10.40;99.90;;;;;;4205900;28;20465;-59
2022/05/07 03:57:00;;;;;;;27.33;17.27;;;10.50;99.90;;;;;;4204818;28;20109;-60
2022/05/07 03:59:02;;;;;;;28.93;17.73;;;10.50;99.90;;;;;;4212820;28;20031;-59
2022/05/07 04:01:03;;;;;;;28.70;18.30;;;10.60;99.90;;;;;;4221198;28;20023;-62
2022/05/07 04:03:05;;;;;;;32.60;18.87;;;10.70;99.90;;;;;;4222244;28;20104;-55
2022/05/07 04:05:07;;;;;;;55.23;32.20;;;10.70;99.90;;;;;;4210533;28;20040;-62
2022/05/07 04:07:09;;;;;;;37.53;25.97;;;10.70;99.90;;;;;;4206766;28;20024;-57
2022/05/07 04:09:10;;;;;;;26.27;18.17;;;10.70;99.90;;;;;;4222040;28;20035;-55
2022/05/07 04:11:11;;;;;;;24.30;15.53;;;10.70;99.90;;;;;;4221501;28;20837;-55
2022/05/07 04:13:12;;;;;;;22.97;15.90;;;10.70;99.90;;;;;;4222015;28;20085;-63
2022/05/07 04:15:14;;;;;;;23.97;16.80;;;10.60;99.90;;;;;;4221522;28;20089;-61
2022/05/07 04:17:15;;;;;;;25.70;16.37;;;10.60;99.90;;;;;;4222186;28;20047;-56
2022/05/07 04:19:16;;;;;;;25.30;16.63;;;10.50;99.90;;;;;;4219278;28;20087;-66
2022/05/07 04:21:18;;;;;;;20.73;13.67;;;10.60;99.90;;;;;;4221881;28;20040;-59
2022/05/07 04:23:19;;;;;;;16.97;12.50;;;10.60;99.90;;;;;;4206924;28;20036;-66
2022/05/07 04:25:20;;;;;;;24.37;13.47;;;10.70;99.90;;;;;;4222691;28;20380;-64
2022/05/07 04:27:21;;;;;;;18.83;11.70;;;10.70;99.90;;;;;;4220911;28;20028;-62
2022/05/07 04:29:23;;;;;;;18.70;11.77;;;10.80;99.90;;;;;;4221814;28;20035;-65
2022/05/07 04:31:24;;;;;;;20.13;11.40;;;10.90;99.90;;;;;;4223351;28;20035;-53
2022/05/07 04:33:26;;;;;;;12.57;9.23;;;10.90;99.90;;;;;;4225123;28;20073;-57
2022/05/07 04:35:27;;;;;;;18.07;10.27;;;11.00;99.90;;;;;;4224517;28;20035;-61
2022/05/07 04:37:28;;;;;;;23.13;12.03;;;11.10;99.90;;;;;;4224737;28;20031;-58
2022/05/07 04:39:30;;;;;;;15.37;9.60;;;11.10;99.90;;;;;;4224565;28;20085;-65
2022/05/07 04:41:32;;;;;;;17.00;9.50;;;11.20;99.90;;;;;;4222576;28;20071;-65
2022/05/07 04:43:33;;;;;;;16.00;8.90;;;11.20;99.90;;;;;;4224964;28;20092;-63
2022/05/07 04:45:34;;;;;;;15.17;8.20;;;11.20;99.90;;;;;;4221657;28;20057;-56
2022/05/07 04:47:35;;;;;;;20.27;9.77;;;11.30;99.90;;;;;;4226083;27;21044;-51
2022/05/07 04:49:37;;;;;;;21.93;10.33;;;11.30;99.90;;;;;;4223705;28;20032;-55
2022/05/07 04:51:38;;;;;;;21.57;12.40;;;11.30;99.90;;;;;;4221883;28;20088;-60
2022/05/07 04:53:39;;;;;;;23.57;13.67;;;11.30;99.90;;;;;;4206696;28;20082;-63
2022/05/07 04:55:40;;;;;;;23.03;15.00;;;11.30;99.90;;;;;;4219451;27;20047;-65
2022/05/07 04:57:41;;;;;;;31.83;20.27;;;11.20;99.90;;;;;;4232042;27;20039;-62
2022/05/07 04:59:43;;;;;;;28.90;15.50;;;11.20;99.90;;;;;;4241800;27;20023;-57
2022/05/07 05:01:44;;;;;;;28.53;12.40;;;11.20;99.90;;;;;;4240085;27;20023;-61
2022/05/07 05:03:45;;;;;;;21.77;13.13;;;11.20;99.90;;;;;;4241636;27;20103;-68
2022/05/07 05:05:46;;;;;;;25.27;13.63;;;11.20;99.90;;;;;;4241161;27;20034;-71
2022/05/07 05:07:48;;;;;;;24.60;13.00;;;11.20;99.90;;;;;;4240882;27;20039;-59
2022/05/07 05:09:49;;;;;;;20.80;12.07;;;11.30;99.90;;;;;;4240730;27;20043;-64
2022/05/07 05:11:50;;;;;;;16.33;11.47;;;11.40;99.90;;;;;;4240599;27;20047;-61
2022/05/07 05:13:51;;;;;;;18.33;11.23;;;11.40;99.90;;;;;;4240850;27;20084;-59
2022/05/07 05:15:53;;;;;;;19.50;12.00;;;11.50;99.90;;;;;;4228377;27;20092;-64
2022/05/07 05:17:54;;;;;;;22.43;11.57;;;11.60;99.90;;;;;;4223963;28;20040;-60
2022/05/07 05:19:55;;;;;;;24.37;12.40;;;11.70;99.90;;;;;;4222974;28;20036;-62
2022/05/07 05:21:57;;;;;;;19.67;12.07;;;11.80;99.90;;;;;;4210167;28;20048;-62
2022/05/07 05:23:58;;;;;;;17.83;12.33;;;11.90;99.90;;;;;;4207647;27;20077;-63
2022/05/07 05:25:59;;;;;;;23.33;13.13;;;12.00;99.90;;;;;;4224193;27;20081;-61
2022/05/07 05:28:00;;;;;;;17.83;11.93;;;12.10;99.90;;;;;;4220968;27;20032;-62
2022/05/07 05:30:02;;;;;;;31.27;13.30;;;12.10;99.90;;;;;;4235372;27;20140;-64
2022/05/07 05:32:03;;;;;;;28.90;16.60;;;12.20;99.90;;;;;;4232801;27;20031;-61
2022/05/07 05:34:04;;;;;;;26.60;13.37;;;12.20;99.90;;;;;;4227618;27;20043;-60
2022/05/07 05:36:06;;;;;;;33.27;15.63;;;12.20;99.90;;;;;;4234864;27;20069;-68
2022/05/07 05:38:07;;;;;;;26.47;15.70;;;12.30;99.90;;;;;;4232790;27;20076;-64
2022/05/07 05:40:09;;;;;;;29.27;15.03;;;12.30;99.90;;;;;;4223371;27;20047;-59
2022/05/07 05:42:11;;;;;;;30.43;16.60;;;12.40;99.90;;;;;;4222766;28;20035;-67
2022/05/07 05:44:12;;;;;;;23.67;14.97;;;12.40;99.90;;;;;;4219856;28;20032;-63
2022/05/07 05:46:16;;;;;;;25.60;14.93;;;12.50;99.90;;;;;;4206305;28;20032;-68
2022/05/07 05:48:17;;;;;;;29.80;14.90;;;12.60;99.90;;;;;;4206811;28;20035;-54
2022/05/07 05:50:18;;;;;;;28.60;15.37;;;12.60;99.90;;;;;;4206270;28;20028;-68
2022/05/07 05:52:19;;;;;;;31.67;17.70;;;12.70;99.90;;;;;;4206273;28;20044;-59
2022/05/07 05:54:21;;;;;;;30.60;16.10;;;12.80;99.90;;;;;;4204167;28;20040;-61
2022/05/07 05:56:22;;;;;;;20.67;13.17;;;12.80;99.90;;;;;;4207512;28;20044;-61
2022/05/07 05:58:23;;;;;;;23.10;11.80;;;12.90;99.90;;;;;;4206294;28;21446;-60
2022/05/07 06:00:24;;;;;;;16.70;10.00;;;13.00;99.90;;;;;;4206976;28;20028;-59
2022/05/07 06:02:25;;;;;;;21.43;9.50;;;13.10;99.90;;;;;;4206139;28;20036;-60
2022/05/07 06:04:27;;;;;;;17.07;9.70;;;13.10;99.90;;;;;;4206686;28;20077;-69
2022/05/07 06:06:28;;;;;;;14.30;9.30;;;13.30;99.90;;;;;;4206232;28;20036;-60
2022/05/07 06:08:30;;;;;;;8.97;7.67;;;13.40;99.90;;;;;;4206735;28;20047;-62
2022/05/07 06:10:31;;;;;;;13.43;7.00;;;13.60;99.90;;;;;;4206174;28;20044;-64
2022/05/07 06:12:33;;;;;;;12.77;6.93;;;13.70;99.90;;;;;;4206392;28;20365;-66
2022/05/07 06:14:34;;;;;;;11.57;7.00;;;13.70;99.90;;;;;;4206705;28;20036;-66
2022/05/07 06:16:35;;;;;;;12.43;7.27;;;13.80;99.90;;;;;;4205473;28;20032;-57
2022/05/07 06:18:36;;;;;;;12.93;7.50;;;13.80;99.90;;;;;;4206305;28;20032;-59
2022/05/07 06:20:37;;;;;;;10.27;7.50;;;13.90;99.90;;;;;;4205724;28;20037;-62
2022/05/07 06:22:39;;;;;;;9.17;6.57;;;14.00;99.90;;;;;;4206449;28;20422;-68
2022/05/07 06:29:19;;;;;;;16.93;9.47;;;14.70;99.90;;;;;;4206511;28;20438;-61
2022/05/07 06:31:20;;;;;;;17.77;10.07;;;14.70;99.90;;;;;;4206552;28;20446;-61
2022/05/07 06:33:21;;;;;;;16.37;9.17;;;14.70;99.90;;;;;;4205425;28;20545;-65
2022/05/07 06:35:22;;;;;;;11.07;8.37;;;14.80;99.90;;;;;;4197432;28;20044;-61
2022/05/07 06:37:24;;;;;;;13.50;8.37;;;14.80;99.90;;;;;;4206627;27;20108;-58
2022/05/07 06:39:25;;;;;;;25.60;12.03;;;15.00;99.90;;;;;;4222860;28;20043;-60
2022/05/07 06:41:26;;;;;;;27.93;11.93;;;15.20;99.90;;;;;;4222134;28;20089;-58
2022/05/07 06:43:31;;;;;;;23.63;10.53;;;15.40;99.90;;;;;;4222527;28;20043;-61
2022/05/07 06:45:33;;;;;;;23.70;11.23;;;15.70;99.90;;;;;;4220659;28;20047;-54
2022/05/07 06:47:34;;;;;;;20.10;10.93;;;16.10;99.90;;;;;;4222862;28;20084;-61
2022/05/07 06:49:36;;;;;;;23.90;10.83;;;16.20;99.90;;;;;;4222084;28;20027;-64
2022/05/07 06:51:38;;;;;;;15.20;10.57;;;16.30;99.90;;;;;;4221672;28;20093;-61
2022/05/07 06:53:39;;;;;;;23.93;10.07;;;16.30;99.90;;;;;;4221365;28;20080;-58
2022/05/07 06:55:55;;;;;;;15.30;10.07;;;16.20;99.90;;;;;;4221515;28;20500;-61
2022/05/07 06:57:58;;;;;;;20.00;11.40;;;16.10;99.90;;;;;;4221739;28;20052;-57
2022/05/07 06:59:59;;;;;;;30.02;12.07;;;16.00;99.90;;;;;;4221123;28;20027;-54
2022/05/07 07:02:00;;;;;;;16.92;10.15;;;16.10;99.90;;;;;;4222699;28;20085;-59
2022/05/07 07:04:02;;;;;;;14.13;9.75;;;16.20;99.90;;;;;;4221844;28;20376;-59
2022/05/07 07:06:03;;;;;;;22.15;9.65;;;16.30;99.90;;;;;;4213507;28;20069;-60
2022/05/07 07:08:04;;;;;;;16.77;9.55;;;16.40;99.90;;;;;;4220580;28;20039;-60
2022/05/07 07:10:06;;;;;;;18.65;11.07;;;16.40;99.90;;;;;;4222576;28;20080;-61
2022/05/07 07:12:09;;;;;;;19.25;10.73;;;16.50;99.90;;;;;;4213207;28;20113;-59
2022/05/07 07:14:11;;;;;;;24.13;11.23;;;16.40;99.90;;;;;;4205391;28;20111;-58
2022/05/07 07:16:12;;;;;;;25.77;13.60;;;16.30;99.90;;;;;;4204466;28;20039;-56
2022/05/07 07:18:13;;;;;;;16.63;10.98;;;16.30;99.90;;;;;;4205144;28;20028;-59
2022/05/07 07:20:15;;;;;;;22.88;11.70;;;16.30;99.90;;;;;;4204689;28;20051;-59
2022/05/07 07:22:16;;;;;;;19.05;11.73;;;16.50;99.90;;;;;;4201492;28;20102;-61
2022/05/07 07:24:18;;;;;;;22.42;12.38;;;16.50;99.90;;;;;;4191927;28;20063;-52
2022/05/07 07:26:19;;;;;;;25.85;13.00;;;16.70;99.90;;;;;;4205856;28;20072;-54
2022/05/07 07:28:21;;;;;;;21.27;11.65;;;16.60;99.90;;;;;;4204807;28;20032;-57
2022/05/07 07:30:22;;;;;;;18.15;11.75;;;16.50;99.90;;;;;;4210252;28;20051;-62
2022/05/07 07:32:25;;;;;;;20.30;12.02;;;16.40;99.90;;;;;;4226789;27;20115;-62
2022/05/07 07:34:26;;;;;;;23.00;12.25;;;16.30;99.90;;;;;;4216054;27;20561;-62
2022/05/07 07:36:27;;;;;;;27.70;11.18;;;16.30;99.90;;;;;;4234173;27;20039;-65
2022/05/07 07:38:29;;;;;;;21.55;11.38;;;16.30;99.90;;;;;;4227552;27;20080;-69
2022/05/07 07:40:31;;;;;;;21.52;9.85;;;16.40;99.90;;;;;;4226733;27;20524;-61
2022/05/07 07:42:32;;;;;;;16.35;10.60;;;16.40;99.90;;;;;;4212182;28;20035;-61
2022/05/07 07:44:33;;;;;;;14.73;9.80;;;16.60;99.90;;;;;;4230694;28;20575;-62
2022/05/07 07:48:54;;;;;;;16.48;9.65;;;16.70;99.90;;;;;;4206921;28;20073;-68
2022/05/07 07:50:55;;;;;;;13.27;8.48;;;16.70;99.90;;;;;;4221384;28;20567;-59
2022/05/07 07:52:59;;;;;;;13.98;7.47;;;16.80;99.90;;;;;;4221746;28;20039;-61
2022/05/07 07:55:00;;;;;;;15.00;9.02;;;16.90;99.90;;;;;;4209571;28;20450;-55
2022/05/07 07:57:04;;;;;;;20.02;9.70;;;16.90;99.90;;;;;;4204274;28;20157;-62
2022/05/07 07:59:05;;;;;;;13.32;8.02;;;17.00;99.90;;;;;;4212121;28;20089;-63
2022/05/07 08:01:07;;;;;;;11.32;8.20;;;17.10;99.90;;;;;;4221206;28;20429;-62
2022/05/07 08:03:14;;;;;;;16.13;9.23;;;17.30;99.90;;;;;;4220651;28;20085;-57
2022/05/07 08:05:17;;;;;;;14.38;8.77;;;17.40;99.90;;;;;;4221285;28;20085;-55
2022/05/07 08:11:59;;;;;;;;;;;17.50;99.90;;;;;;4224272;28;20100;-55
2022/05/07 08:14:00;;;;;;;11.30;8.27;;;17.60;99.90;;;;;;4224768;28;19911;-59
2022/05/07 08:16:03;;;;;;;9.82;7.75;;;17.70;99.90;;;;;;4224187;28;20024;-65
2022/05/07 08:18:05;;;;;;;17.45;8.38;;;17.60;99.90;;;;;;4208291;28;20834;-58
2022/05/07 08:20:09;;;;;;;15.38;8.30;;;17.80;99.90;;;;;;4210351;28;20035;-57
2022/05/07 08:22:11;;;;;;;16.75;9.15;;;17.90;99.90;;;;;;4223623;28;20039;-57
2022/05/07 08:24:12;;;;;;;14.93;8.48;;;18.00;99.90;;;;;;4224999;28;20051;-64
2022/05/07 08:26:13;;;;;;;10.90;7.85;;;18.00;99.90;;;;;;4223909;28;20417;-59
2022/05/07 08:28:15;;;;;;;15.10;8.60;;;18.10;99.90;;;;;;4225147;27;20104;-65
2022/05/07 08:30:17;;;;;;;12.63;8.25;;;18.30;99.90;;;;;;4212458;28;20028;-59
2022/05/07 08:32:18;;;;;;;17.63;9.63;;;18.30;99.90;;;;;;4208091;28;20060;-58
2022/05/07 08:34:19;;;;;;;14.30;8.57;;;18.50;99.90;;;;;;4205909;28;20059;-64
2022/05/07 08:36:20;;;;;;;11.18;7.63;;;18.70;99.90;;;;;;4208585;28;20036;-58
2022/05/07 08:38:21;;;;;;;13.35;8.48;;;18.90;99.90;;;;;;4207470;28;20035;-56
2022/05/07 08:40:24;;;;;;;13.20;8.35;;;18.90;99.90;;;;;;4207521;28;20051;-63
2022/05/07 08:42:25;;;;;;;16.88;8.45;;;18.90;99.90;;;;;;4206952;28;20105;-61
2022/05/07 08:44:26;;;;;;;11.52;8.40;;;19.20;99.90;;;;;;4207349;28;20549;-59
2022/05/07 08:46:28;;;;;;;13.63;8.18;;;19.40;99.60;;;;;;4206771;28;20122;-54
2022/05/07 08:48:29;;;;;;;14.85;8.23;;;19.40;99.80;;;;;;4217295;28;20031;-57
2022/05/07 08:50:30;;;;;;;15.70;8.93;;;19.40;99.40;;;;;;4217871;28;20040;-58
2022/05/07 08:52:32;;;;;;;11.68;8.02;;;19.40;99.10;;;;;;4207267;28;20028;-54
2022/05/07 08:54:34;;;;;;;10.90;7.55;;;19.40;98.90;;;;;;4207626;28;20614;-56
2022/05/07 08:56:35;;;;;;;11.02;7.85;;;19.50;98.80;;;;;;4205992;28;20028;-54
2022/05/07 08:58:37;;;;;;;14.07;8.15;;;19.50;98.70;;;;;;4207505;28;20032;-52
2022/05/07 09:00:38;;;;;;;13.68;7.68;;;19.50;98.50;;;;;;4206855;28;20655;-58
2022/05/07 09:02:42;;;;;;;13.52;7.97;;;19.70;98.40;;;;;;4206457;28;20076;-57
2022/05/07 09:04:58;;;;;;;13.32;7.15;;;20.00;98.00;;;;;;4216135;28;20023;-58
2022/05/07 09:07:03;;;;;;;12.38;7.72;;;20.10;97.20;;;;;;4224710;28;20483;-63
2022/05/07 09:09:06;;;;;;;9.27;7.40;;;20.00;97.70;;;;;;4223228;28;20047;-56
2022/05/07 09:11:07;;;;;;;11.60;7.40;;;20.00;97.50;;;;;;4223443;28;21002;-53
2022/05/07 09:13:08;;;;;;;13.43;7.40;;;19.90;97.50;;;;;;4223200;28;20070;-60
2022/05/07 09:15:10;;;;;;;10.68;8.05;;;19.80;97.40;;;;;;4224235;27;20446;-59
2022/05/07 09:17:11;;;;;;;13.30;7.93;;;19.70;97.30;;;;;;4216565;28;20051;-53
2022/05/07 09:19:22;;;;;;;10.30;7.22;;;19.70;97.50;;;;;;4207561;28;20044;-58
2022/05/07 09:21:26;;;;;;;10.02;7.18;;;19.60;97.40;;;;;;4207839;28;20040;-59
2022/05/07 09:23:28;;;;;;;9.73;6.90;;;19.50;97.50;;;;;;4207706;28;20097;-63
2022/05/07 09:25:30;;;;;;;15.13;8.38;;;19.50;97.40;;;;;;4206307;28;20059;-59
2022/05/07 09:27:31;;;;;;;12.88;8.25;;;19.60;97.50;;;;;;4206941;28;20100;-59
2022/05/07 09:29:34;;;;;;;10.02;7.00;;;19.80;97.20;;;;;;4206669;28;20040;-53
2022/05/07 09:31:37;;;;;;;11.02;7.03;;;19.90;96.90;;;;;;4206828;28;20117;-57
2022/05/07 09:33:38;;;;;;;10.65;8.05;;;20.00;96.70;;;;;;4206645;28;20036;-58
2022/05/07 09:35:48;;;;;;;21.70;13.50;;;20.10;96.80;;;;;;4205652;28;20109;-57
2022/05/07 09:37:58;;;;;;;12.13;8.10;;;20.30;96.70;;;;;;4207771;28;20111;-60
2022/05/07 09:40:07;;;;;;;11.15;7.55;;;20.30;96.60;;;;;;4204808;28;20927;-60
2022/05/07 09:42:08;;;;;;;13.68;7.68;;;20.40;96.70;;;;;;4206738;28;20396;-54
2022/05/07 09:44:11;;;;;;;9.98;6.78;;;20.60;96.70;;;;;;4205792;28;20086;-57
2022/05/07 09:46:12;;;;;;;9.75;6.78;;;20.60;96.20;;;;;;4206948;28;20040;-59
2022/05/07 09:48:14;;;;;;;9.50;8.07;;;20.70;96.00;;;;;;4205851;28;20098;-57
2022/05/07 09:50:21;;;;;;;9.63;6.80;;;20.70;96.00;;;;;;4213898;28;20023;-59
2022/05/07 09:52:22;;;;;;;9.60;6.50;;;20.50;96.10;;;;;;4222330;28;20043;-56
2022/05/07 09:59:04;;;;;;;6.45;5.53;;;20.50;96.20;;;;;;4223507;28;20540;-57
2022/05/07 10:01:14;;;;;;;10.40;6.78;;;20.50;96.00;;;;;;4216866;28;20532;-56
2022/05/07 10:03:34;;;;;;;11.30;6.70;;;20.60;95.70;;;;;;4211687;27;20518;-57
2022/05/07 10:05:57;;;;;;;8.30;5.22;;;20.60;95.40;;;;;;4209727;28;20552;-56
2022/05/07 10:08:17;;;;;;;9.77;6.03;;;20.60;94.80;;;;;;4209515;27;20053;-57
2022/05/07 10:10:29;;;;;;;10.93;5.68;;;20.50;95.40;;;;;;4214925;27;20023;-52
2022/05/07 10:12:31;;;;;;;10.82;5.95;;;20.50;95.40;;;;;;4233750;27;20047;-54
2022/05/07 10:14:32;;;;;;;10.35;5.70;;;20.50;95.30;;;;;;4226161;27;20027;-55
2022/05/07 10:16:34;;;;;;;6.20;5.55;;;20.60;95.10;;;;;;4231965;27;20039;-57
2022/05/07 10:18:41;;;;;;;8.75;6.07;;;20.70;94.80;;;;;;4233319;27;20059;-54
2022/05/07 10:20:45;;;;;;;7.15;5.38;;;20.70;94.60;;;;;;4225886;27;20815;-55
2022/05/07 10:22:56;;;;;;;9.73;6.10;;;20.80;94.60;;;;;;4230005;27;20104;-56
2022/05/07 10:25:07;;;;;;;8.63;5.53;;;20.70;94.30;;;;;;4231772;27;20096;-54
2022/05/07 10:27:21;;;;;;;9.90;6.50;;;20.70;94.50;;;;;;4216675;28;20871;-55
2022/05/07 10:29:26;;;;;;;10.35;6.20;;;20.60;94.20;;;;;;4205151;28;20475;-56
2022/05/07 10:31:27;;;;;;;8.43;5.53;;;20.60;94.50;;;;;;4210894;28;20032;-54
2022/05/07 10:33:40;;;;;;;7.88;4.95;;;20.60;94.70;;;;;;4215660;28;20487;-60
2022/05/07 10:35:52;;;;;;;9.80;5.75;;;20.70;94.10;;;;;;4209411;28;20051;-59
2022/05/07 10:38:04;;;;;;;11.27;6.18;;;20.80;94.30;;;;;;4211483;27;20059;-56
2022/05/07 10:40:11;;;;;;;6.60;5.70;;;20.70;94.00;;;;;;4212759;28;20993;-54
2022/05/07 10:42:17;;;;;;;6.32;4.45;;;20.60;93.90;;;;;;4206487;28;20101;-57
2022/05/07 10:44:33;;;;;;;8.20;5.53;;;20.60;94.00;;;;;;4207284;28;20458;-60
2022/05/07 10:46:44;;;;;;;7.03;5.35;;;20.70;93.60;;;;;;4210247;28;20080;-55
2022/05/07 10:48:47;;;;;;;11.02;5.20;;;20.60;93.50;;;;;;4208205;28;20088;-54
2022/05/07 10:50:53;;;;;;;14.95;5.82;;;20.70;93.50;;;;;;4212512;28;20048;-56
2022/05/07 10:52:55;;;;;;;6.20;4.30;;;20.70;93.20;;;;;;4207679;28;20051;-60